Terminal Aerodrome Forecast
Issued by NWS

Home | Current Version | Previous Version | Text Only | Print | Product List | Glossary On
Versions: 1 2 3 4 5 6 7 8 9 10 11 12 13 14 15 16 17 18 19 20
000
FTUS42 KRAH 281838 AAA
TAFRWI
TAF AMD
KRWI 281838Z 2819/2918 18007KT P6SM VCTS BKN050CB
      TEMPO 2819/2821 VRB14G28KT 2SM -TSRA BKN015CB
     FM290400 15003KT 4SM -SHRA SCT030 BKN050
     FM290900 15004KT P6SM SCT007 OVC100
     FM291400 13006KT P6SM BKN050=

USA.gov is the U.S. government's official web portal to all federal, state and local government web resources and services.